This is the latest recevied weather packets stored in our database for station/object N8SDR. If no packets are shown the sender has not sent any weather packets the latest 10 day(s).
| Time | Temp. | Humidity | Pressure | Rain* | Wind** | Luminosity | Snow |
|---|---|---|---|---|---|---|---|
| 1777402882 | 22.78° C | 67% | 1009.9 hPa | 0 mm | - | 758 W/m² | - |
| 1777402578 | 22.78° C | 69% | 1010 hPa | 0 mm | - | 780 W/m² | - |
| 1777402276 | 22.22° C | 73% | 1010.1 hPa | 0 mm | - | 769 W/m² | - |
| 1777401970 | 22.78° C | 72% | 1010.3 hPa | 0 mm | - | 839 W/m² | - |
| 1777401669 | 23.89° C | 67% | 1010.1 hPa | 0 mm | - | 184 W/m² | - |
| 1777401367 | 23.33° C | 70% | 1010.1 hPa | 0 mm | - | 791 W/m² | - |
| 1777401062 | 22.78° C | 72% | 1010.4 hPa | 0 mm | - | 776 W/m² | - |
| 1777400757 | 22.78° C | 73% | 1010.3 hPa | 0 mm | - | 761 W/m² | - |
| 1777400455 | 22.78° C | 73% | 1010.3 hPa | 0 mm | - | 878 W/m² | - |
| 1777400150 | 23.33° C | 71% | 1010.3 hPa | 0 mm | - | 770 W/m² | - |
| 1777399848 | 22.22° C | 75% | 1010.5 hPa | 0 mm | - | 344 W/m² | - |
| 1777399544 | 22.78° C | 74% | 1010.5 hPa | 0 mm | - | 719 W/m² | - |
| 1777399242 | 21.67° C | 74% | 1010.4 hPa | 0 mm | - | 862 W/m² | - |
| 1777398939 | 22.22° C | 75% | 1010.5 hPa | 0 mm | - | 931 W/m² | - |
| 1777398636 | 22.78° C | 73% | 1010.4 hPa | 0 mm | - | 255 W/m² | - |
| 1777398332 | 22.22° C | 76% | 1010.7 hPa | 0 mm | - | 847 W/m² | - |
| 1777398024 | 22.22° C | 75% | 1010.5 hPa | 0 mm | - | 789 W/m² | - |
| 1777397720 | 21.67° C | 75% | 1010.4 hPa | 0 mm | - | 353 W/m² | - |
| 1777397417 | 21.67° C | 76% | 1010.6 hPa | 0 mm | - | 799 W/m² | - |
| 1777397113 | 21.67° C | 77% | 1010.7 hPa | 0 mm | - | 789 W/m² | - |
| 1777396810 | 22.22° C | 76% | 1010.5 hPa | 0 mm | - | 382 W/m² | - |
| 1777396506 | 22.22° C | 75% | 1010.7 hPa | 0 mm | - | 358 W/m² | - |
| 1777396203 | 22.78° C | 75% | 1010.8 hPa | 0 mm | - | 208 W/m² | - |
| 1777395899 | 23.33° C | 75% | 1010.6 hPa | 0 mm | - | 288 W/m² | - |
| 1777395594 | 23.33° C | 74% | 1010.8 hPa | 0 mm | - | 886 W/m² | - |
* Rain latest hour (hover to see other rain measurements)
** Current wind speed in m/s (hover to see current wind gust speed)